This is the latest recevied weather packets stored in our database for station/object AD7ZD. If no packets are shown the sender has not sent any weather packets the latest 10 day(s).
| Time | Temp. | Humidity | Pressure | Rain* | Wind** | Luminosity | Snow |
|---|---|---|---|---|---|---|---|
| 1777731596 | 8.33° C | 37% | 1013.5 hPa | 0 mm | - | 70 W/m² | - |
| 1777731294 | 8.33° C | 39% | 1013.5 hPa | 0 mm | - | 64 W/m² | - |
| 1777730991 | 7.78° C | 41% | 1013.6 hPa | 0 mm | - | 59 W/m² | - |
| 1777730690 | 7.78° C | 43% | 1013.6 hPa | 0 mm | - | 53 W/m² | - |
| 1777730385 | 7.22° C | 45% | 1013.5 hPa | 0 mm | - | 48 W/m² | - |
| 1777730081 | 7.22° C | 44% | 1013.4 hPa | 0 mm | - | 44 W/m² | - |
| 1777729778 | 6.67° C | 46% | 1013.3 hPa | 0 mm | - | 38 W/m² | - |
| 1777729475 | 6.67° C | 43% | 1013.4 hPa | 0 mm | - | 34 W/m² | - |
| 1777729172 | 7.22° C | 37% | 1013.1 hPa | 0 mm | - | 29 W/m² | - |
| 1777728868 | 7.78° C | 32% | 1013.1 hPa | 0 mm | - | 26 W/m² | - |
| 1777728565 | 7.78° C | 29% | 1013 hPa | 0 mm | - | 21 W/m² | - |
| 1777728262 | 7.78° C | 33% | 1013 hPa | 0 mm | - | 15 W/m² | - |
| 1777727959 | 7.22° C | 33% | 1013 hPa | 0 mm | - | 11 W/m² | - |
| 1777727656 | 7.78° C | 32% | 1012.8 hPa | 0 mm | - | 7 W/m² | - |
| 1777727353 | 7.22° C | 35% | 1012.9 hPa | 0 mm | - | 4 W/m² | - |
| 1777727051 | 6.67° C | 34% | 1013 hPa | 0 mm | - | 1 W/m² | - |
| 1777726748 | 7.22° C | 36% | 1012.7 hPa | 0 mm | - | 0 W/m² | - |
| 1777726445 | 7.22° C | 34% | 1012.8 hPa | 0 mm | - | 0 W/m² | - |
| 1777726142 | 7.78° C | 35% | 1012.8 hPa | 0 mm | - | 0 W/m² | - |
| 1777725838 | 7.78° C | 36% | 1012.7 hPa | 0 mm | - | 0 W/m² | - |
| 1777725536 | 7.78° C | 36% | 1012.7 hPa | 0 mm | - | 0 W/m² | - |
| 1777725233 | 7.22° C | 35% | 1012.9 hPa | 0 mm | - | 0 W/m² | - |
| 1777724931 | 7.22° C | 35% | 1012.8 hPa | 0 mm | - | 0 W/m² | - |
| 1777724626 | 7.22° C | 35% | 1013 hPa | 0 mm | - | 0 W/m² | - |
| 1777724325 | 8.33° C | 32% | 1012.8 hPa | 0 mm | - | 0 W/m² | - |
* Rain latest hour (hover to see other rain measurements)
** Current wind speed in m/s (hover to see current wind gust speed)